createdAt,value
2022-08-17T00:00:42.878Z,5.63
2022-08-17T00:03:30.571Z,5.68
2022-08-17T00:06:26.112Z,6.45
2022-08-17T00:08:57.797Z,5.68
2022-08-17T00:11:28.865Z,6.15
2022-08-17T00:14:03.666Z,6.15
2022-08-17T00:16:51.025Z,6.32
2022-08-17T00:19:25.558Z,6.00
2022-08-17T00:22:34.671Z,7.15
2022-08-17T00:24:45.600Z,6.45
2022-08-17T00:27:13.465Z,6.05
2022-08-17T00:29:42.315Z,6.05
2022-08-17T00:33:15.013Z,5.72
2022-08-17T00:34:58.373Z,7.10
2022-08-17T00:37:26.351Z,5.32
2022-08-17T00:39:54.441Z,6.25
2022-08-17T00:42:22.367Z,5.25
2022-08-17T00:44:50.235Z,6.50
2022-08-17T00:47:18.104Z,5.97
2022-08-17T00:49:46.144Z,5.80
2022-08-17T00:52:20.551Z,5.53
2022-08-17T00:54:52.378Z,5.53
2022-08-17T00:57:28.481Z,5.75
2022-08-17T01:00:02.922Z,5.82
2022-08-17T01:02:42.464Z,6.43
2022-08-17T01:05:18.636Z,6.20
2022-08-17T01:07:50.056Z,6.18
2022-08-17T01:10:59.223Z,6.57
2022-08-17T01:13:12.416Z,5.43
2022-08-17T01:15:47.681Z,5.05
2022-08-17T01:18:16.709Z,5.20
2022-08-17T01:20:50.736Z,5.78
2022-08-17T01:23:21.406Z,6.57
2022-08-17T01:25:55.181Z,5.43
2022-08-17T01:28:33.656Z,6.38
2022-08-17T01:31:13.337Z,5.00
2022-08-17T01:33:42.026Z,5.38
2022-08-17T01:36:10.606Z,5.53
2022-08-17T01:38:40.401Z,5.10
2022-08-17T01:41:15.570Z,5.05
2022-08-17T01:43:56.951Z,5.13
2022-08-17T01:46:28.847Z,5.47
2022-08-17T01:48:57.958Z,5.63
2022-08-17T01:51:32.812Z,5.75
2022-08-17T01:54:05.459Z,6.10
2022-08-17T01:56:35.623Z,5.70
2022-08-17T01:59:04.233Z,5.25
2022-08-17T02:01:33.799Z,5.90
2022-08-17T02:04:02.992Z,5.38
2022-08-17T02:06:52.721Z,5.18
2022-08-17T02:09:25.218Z,4.97
2022-08-17T02:11:56.309Z,6.03
2022-08-17T02:14:25.880Z,5.75
2022-08-17T02:16:54.356Z,5.75
2022-08-17T02:19:22.757Z,5.75
2022-08-17T02:21:53.016Z,5.90
2022-08-17T02:24:58.798Z,5.63
2022-08-17T02:27:13.796Z,5.28
2022-08-17T02:29:41.607Z,5.60
2022-08-17T02:32:27.980Z,5.53
2022-08-17T02:35:01.602Z,7.18
2022-08-17T02:37:31.956Z,7.60
2022-08-17T02:40:00.008Z,8.32
2022-08-17T02:42:33.985Z,5.43
2022-08-17T02:45:03.997Z,7.25
2022-08-17T02:47:31.945Z,5.55
2022-08-17T02:49:59.778Z,5.60
2022-08-17T02:52:41.926Z,5.43
2022-08-17T02:55:24.341Z,5.53
2022-08-17T02:57:53.475Z,6.60
2022-08-17T03:00:30.116Z,6.10
2022-08-17T03:02:58.052Z,6.38
2022-08-17T03:05:29.112Z,5.68
2022-08-17T03:07:57.150Z,5.60
2022-08-17T03:10:25.685Z,5.05
2022-08-17T03:12:54.248Z,6.20
2022-08-17T03:15:26.060Z,5.85
2022-08-17T03:17:55.274Z,5.43
2022-08-17T03:20:24.856Z,5.85
2022-08-17T03:22:55.583Z,5.47
2022-08-17T03:25:39.983Z,5.55
2022-08-17T03:28:14.584Z,5.72
2022-08-17T03:30:42.680Z,5.05
2022-08-17T03:33:10.931Z,5.45
2022-08-17T03:35:40.469Z,5.80
2022-08-17T03:38:10.919Z,6.50
2022-08-17T03:40:57.059Z,7.30
2022-08-17T03:43:32.048Z,7.45
2022-08-17T03:46:28.216Z,6.68
2022-08-17T03:49:26.726Z,6.35
2022-08-17T03:52:14.864Z,5.28
2022-08-17T03:55:52.463Z,6.15
2022-08-17T03:58:20.336Z,5.03
2022-08-17T04:00:48.993Z,5.60
2022-08-17T04:03:17.912Z,5.35
2022-08-17T04:05:45.696Z,5.97
2022-08-17T04:08:13.835Z,5.75
2022-08-17T04:10:45.005Z,6.22
2022-08-17T04:13:13.924Z,5.80
2022-08-17T04:15:41.905Z,5.05
2022-08-17T04:18:11.056Z,5.03
2022-08-17T04:20:38.981Z,5.68
2022-08-17T04:23:11.627Z,5.30
2022-08-17T04:25:43.267Z,5.65
2022-08-17T04:28:16.146Z,5.45
2022-08-17T04:30:45.735Z,5.43
2022-08-17T04:33:17.242Z,6.95
2022-08-17T04:35:48.246Z,5.50
2022-08-17T04:38:24.668Z,5.40
2022-08-17T04:41:11.435Z,5.70
2022-08-17T04:43:41.414Z,5.47
2022-08-17T04:46:14.593Z,5.80
2022-08-17T04:48:50.079Z,5.55
2022-08-17T04:51:23.008Z,5.22
2022-08-17T04:53:57.686Z,5.57
2022-08-17T04:56:27.189Z,5.07
2022-08-17T04:59:00.272Z,5.40
2022-08-17T05:01:31.779Z,5.80
2022-08-17T05:04:21.389Z,5.53
2022-08-17T05:06:50.874Z,4.63
2022-08-17T05:09:18.837Z,4.30
2022-08-17T05:11:47.162Z,4.80
2022-08-17T05:14:15.413Z,4.63
2022-08-17T05:16:43.291Z,4.72
2022-08-17T05:19:11.248Z,4.65
2022-08-17T05:21:39.147Z,4.70
2022-08-17T05:24:09.683Z,4.82
2022-08-17T05:26:54.829Z,4.20
2022-08-17T05:29:23.137Z,4.80
2022-08-17T05:32:39.284Z,4.72
2022-08-17T05:35:08.523Z,4.28
2022-08-17T05:37:36.413Z,4.60
2022-08-17T05:40:04.853Z,4.47
2022-08-17T05:42:32.737Z,4.90
2022-08-17T05:45:00.606Z,4.57
2022-08-17T05:47:30.421Z,4.32
2022-08-17T05:50:00.969Z,4.60
2022-08-17T05:53:16.012Z,4.90
2022-08-17T05:56:10.871Z,4.43
2022-08-17T05:59:19.902Z,4.38
2022-08-17T06:02:08.882Z,4.93
2022-08-17T06:04:53.126Z,4.30
2022-08-17T06:07:24.203Z,4.60
2022-08-17T06:10:17.144Z,4.10
2022-08-17T06:13:34.520Z,4.25
2022-08-17T06:16:33.393Z,3.85
2022-08-17T06:23:36.145Z,3.58
2022-08-17T06:26:13.908Z,4.20
2022-08-17T06:28:51.937Z,4.93
2022-08-17T06:31:27.520Z,4.20
2022-08-17T06:33:57.924Z,4.15
2022-08-17T06:37:03.777Z,3.55
2022-08-17T06:39:52.075Z,4.82
2022-08-17T06:43:02.137Z,5.10
2022-08-17T06:45:34.666Z,4.40
2022-08-17T06:48:24.898Z,4.50
2022-08-17T06:50:59.950Z,4.68
2022-08-17T06:54:00.834Z,5.07
2022-08-17T06:57:06.259Z,5.38
2022-08-17T06:59:58.640Z,4.60
2022-08-17T07:05:32.811Z,3.80
2022-08-17T07:12:34.240Z,4.82
2022-08-17T07:15:11.828Z,4.15
2022-08-17T07:17:47.170Z,3.80
2022-08-17T07:20:22.765Z,3.88
2022-08-17T07:23:00.600Z,3.88
2022-08-17T07:25:30.726Z,4.57
2022-08-17T07:28:02.486Z,4.32
2022-08-17T07:30:44.585Z,4.50
2022-08-17T07:33:23.776Z,3.40
2022-08-17T07:35:52.212Z,3.55
2022-08-17T07:38:29.281Z,4.50
2022-08-17T07:41:03.421Z,4.03
2022-08-17T07:43:40.013Z,3.85
2022-08-17T07:46:37.072Z,3.78
2022-08-17T07:49:07.644Z,3.70
2022-08-17T07:51:40.907Z,4.07
2022-08-17T07:54:23.629Z,4.20
2022-08-17T07:57:01.849Z,4.63
2022-08-17T07:59:36.128Z,3.70
2022-08-17T08:02:40.318Z,4.57
2022-08-17T08:10:04.434Z,3.80
2022-08-17T08:12:40.287Z,4.20
2022-08-17T08:15:25.640Z,4.40
2022-08-17T08:17:59.376Z,3.75
2022-08-17T08:20:53.890Z,5.78
2022-08-17T08:23:35.688Z,4.22
2022-08-17T08:26:21.428Z,4.10
2022-08-17T08:29:18.283Z,4.47
2022-08-17T08:32:06.366Z,4.10
2022-08-17T08:35:01.716Z,4.25
2022-08-17T08:37:52.682Z,4.47
2022-08-17T08:40:48.148Z,3.95
2022-08-17T08:43:27.638Z,4.45
2022-08-17T08:46:24.493Z,4.15
2022-08-17T08:49:19.803Z,4.93
2022-08-17T08:51:57.639Z,3.60
2022-08-17T08:54:38.983Z,4.63
2022-08-17T08:57:25.691Z,4.35
2022-08-17T09:00:26.536Z,4.00
2022-08-17T09:03:14.668Z,3.88
2022-08-17T09:05:53.577Z,4.07
2022-08-17T09:08:45.593Z,4.60
2022-08-17T09:12:01.411Z,4.28
2022-08-17T09:14:57.827Z,4.63
2022-08-17T09:17:31.842Z,4.68
2022-08-17T09:20:28.788Z,5.15
2022-08-17T09:23:08.049Z,4.85
2022-08-17T09:25:49.897Z,4.63
2022-08-17T09:28:20.901Z,5.05
2022-08-17T09:30:52.446Z,5.27
2022-08-17T09:33:26.247Z,5.38
2022-08-17T09:36:00.119Z,4.30
2022-08-17T09:38:48.362Z,4.75
2022-08-17T09:41:36.457Z,5.05
2022-08-17T09:44:47.146Z,5.13
2022-08-17T09:47:22.712Z,5.40
2022-08-17T09:49:55.257Z,4.65
2022-08-17T09:52:25.273Z,4.50
2022-08-17T09:54:55.904Z,5.00
2022-08-17T09:57:32.148Z,4.35
2022-08-17T10:00:19.030Z,4.72
2022-08-17T10:03:09.625Z,4.35
2022-08-17T10:05:46.682Z,4.22
2022-08-17T10:08:23.569Z,5.45
2022-08-17T10:11:11.641Z,4.28
2022-08-17T10:13:59.764Z,5.53
2022-08-17T10:16:27.591Z,4.43
2022-08-17T10:19:13.854Z,4.68
2022-08-17T10:22:32.519Z,4.75
2022-08-17T10:25:23.627Z,4.20
2022-08-17T10:27:59.869Z,4.40
2022-08-17T10:30:32.654Z,4.50
2022-08-17T10:33:04.987Z,4.03
2022-08-17T10:35:50.989Z,4.20
2022-08-17T10:38:31.135Z,4.97
2022-08-17T10:41:15.303Z,4.90
2022-08-17T10:44:40.272Z,4.88
2022-08-17T10:47:01.462Z,4.30
2022-08-17T10:49:40.730Z,5.03
2022-08-17T10:52:20.706Z,4.68
2022-08-17T10:55:06.388Z,4.80
2022-08-17T10:57:46.725Z,4.35
2022-08-17T11:00:24.270Z,4.65
2022-08-17T11:02:57.567Z,4.93
2022-08-17T11:06:02.303Z,4.22
2022-08-17T11:09:02.553Z,4.78
2022-08-17T11:11:47.651Z,4.25
2022-08-17T11:14:35.781Z,4.88
2022-08-17T11:17:24.558Z,4.80
2022-08-17T11:20:11.621Z,4.43
2022-08-17T11:22:39.678Z,4.55
2022-08-17T11:25:33.668Z,4.47
2022-08-17T11:28:22.292Z,4.60
2022-08-17T11:30:56.440Z,6.00
2022-08-17T11:33:45.338Z,5.63
2022-08-17T11:36:31.684Z,4.82
2022-08-17T11:39:23.434Z,4.28
2022-08-17T11:41:54.626Z,3.90
2022-08-17T11:44:45.941Z,4.90
2022-08-17T11:48:23.798Z,4.32
2022-08-17T11:51:05.450Z,4.30
2022-08-17T11:53:37.193Z,5.82
2022-08-17T11:56:06.684Z,4.60
2022-08-17T11:58:38.639Z,4.40
2022-08-17T12:03:54.251Z,4.38
2022-08-17T12:06:34.419Z,4.57
2022-08-17T12:09:18.930Z,4.60
2022-08-17T12:12:12.158Z,4.55
2022-08-17T12:15:09.558Z,4.75
2022-08-17T12:17:40.814Z,4.30
2022-08-17T12:20:29.966Z,4.93
2022-08-17T12:23:18.489Z,4.88
2022-08-17T12:25:58.112Z,4.82
2022-08-17T12:28:30.393Z,4.53
2022-08-17T12:31:08.142Z,4.45
2022-08-17T12:33:42.751Z,3.95
2022-08-17T12:36:15.226Z,4.05
2022-08-17T12:38:57.326Z,4.78
2022-08-17T12:41:36.884Z,4.82
2022-08-17T12:44:13.955Z,4.63
2022-08-17T12:46:49.438Z,3.85
2022-08-17T12:49:36.505Z,4.35
2022-08-17T12:52:15.729Z,5.68
2022-08-17T12:54:50.807Z,4.60
2022-08-17T12:57:23.070Z,4.57
2022-08-17T13:00:00.948Z,4.45
2022-08-17T13:02:43.601Z,4.68
2022-08-17T13:05:27.744Z,4.85
2022-08-17T13:07:58.879Z,4.28
2022-08-17T13:10:33.490Z,5.95
2022-08-17T13:13:17.712Z,5.70
2022-08-17T13:16:00.974Z,4.20
2022-08-17T13:18:40.885Z,4.75
2022-08-17T13:21:30.688Z,4.45
2022-08-17T13:24:13.818Z,4.47
2022-08-17T13:26:51.581Z,5.70
2022-08-17T13:29:35.130Z,5.68
2022-08-17T13:32:13.013Z,5.68
2022-08-17T13:35:11.912Z,4.85
2022-08-17T13:37:37.380Z,4.22
2022-08-17T13:40:11.169Z,4.47
2022-08-17T13:42:55.979Z,5.13
2022-08-17T13:45:39.504Z,5.43
2022-08-17T13:48:07.673Z,4.88
2022-08-17T13:50:55.552Z,5.15
2022-08-17T13:53:25.981Z,5.53
2022-08-17T13:56:33.333Z,5.38
2022-08-17T13:59:00.569Z,4.70
2022-08-17T14:01:53.780Z,5.13
2022-08-17T14:04:25.833Z,4.03
2022-08-17T14:07:11.757Z,4.05
2022-08-17T14:09:53.316Z,5.25
2022-08-17T14:12:27.373Z,4.23
2022-08-17T14:14:56.383Z,4.55
2022-08-17T14:17:25.545Z,5.03
2022-08-17T14:19:53.400Z,4.88
2022-08-17T14:22:30.672Z,4.90
2022-08-17T14:25:03.349Z,4.95
2022-08-17T14:27:34.107Z,5.07
2022-08-17T14:30:22.735Z,5.68
2022-08-17T14:32:52.174Z,4.88
2022-08-17T14:35:22.661Z,4.65
2022-08-17T14:37:52.568Z,4.95
2022-08-17T14:40:22.681Z,5.80
2022-08-17T14:42:51.531Z,5.25
2022-08-17T14:45:31.621Z,5.50
2022-08-17T14:48:04.294Z,5.10
2022-08-17T14:50:35.275Z,5.68
2022-08-17T14:53:06.520Z,6.45
2022-08-17T14:55:36.830Z,4.40
2022-08-17T14:58:04.665Z,4.97
2022-08-17T15:00:33.201Z,4.50
2022-08-17T15:03:03.180Z,5.72
2022-08-17T15:05:34.106Z,4.25
2022-08-17T15:08:03.068Z,4.63
2022-08-17T15:10:31.533Z,5.03
2022-08-17T15:13:00.242Z,3.92
2022-08-17T15:15:28.754Z,4.65
2022-08-17T15:18:00.012Z,5.93
2022-08-17T15:20:29.967Z,4.97
2022-08-17T15:22:59.421Z,5.88
2022-08-17T15:25:30.633Z,4.75
2022-08-17T15:27:59.797Z,6.88
2022-08-17T15:30:28.409Z,4.32
2022-08-17T15:32:57.737Z,5.10
2022-08-17T15:35:29.216Z,5.95
2022-08-17T15:38:11.789Z,5.35
2022-08-17T15:40:44.944Z,4.82
2022-08-17T15:43:23.304Z,4.53
2022-08-17T15:46:04.539Z,5.55
2022-08-17T15:48:43.749Z,4.68
2022-08-17T15:51:11.830Z,6.40
2022-08-17T15:53:40.483Z,5.13
2022-08-17T15:56:08.444Z,4.93
2022-08-17T15:58:38.044Z,5.07
2022-08-17T16:01:14.996Z,5.13
2022-08-17T16:04:04.803Z,5.32
2022-08-17T16:06:38.731Z,5.10
2022-08-17T16:09:06.563Z,5.33
2022-08-17T16:11:34.457Z,5.85
2022-08-17T16:14:02.352Z,5.43
2022-08-17T16:16:31.350Z,4.88
2022-08-17T16:18:59.444Z,5.75
2022-08-17T16:21:27.593Z,6.72
2022-08-17T16:24:02.782Z,5.47
2022-08-17T16:26:32.945Z,5.28
2022-08-17T16:29:03.780Z,5.63
2022-08-17T16:31:32.483Z,5.85
2022-08-17T16:34:16.986Z,5.00
2022-08-17T16:36:55.044Z,4.95
2022-08-17T16:39:26.659Z,5.53
2022-08-17T16:41:56.105Z,5.80
2022-08-17T16:44:25.761Z,6.60
2022-08-17T16:46:53.600Z,5.20
2022-08-17T16:49:36.260Z,5.40
2022-08-17T16:52:10.122Z,5.53
2022-08-17T16:54:44.120Z,6.05
2022-08-17T16:57:14.110Z,6.38
2022-08-17T16:59:47.457Z,5.53
2022-08-17T17:02:26.165Z,5.75
2022-08-17T17:05:22.695Z,5.22
2022-08-17T17:08:14.148Z,5.93
2022-08-17T17:10:55.776Z,5.90
2022-08-17T17:13:30.819Z,6.05
2022-08-17T17:16:23.705Z,5.97
2022-08-17T17:19:27.683Z,6.40
2022-08-17T17:22:16.682Z,8.18
2022-08-17T17:25:01.748Z,8.68
2022-08-17T17:27:50.172Z,8.95
2022-08-17T17:30:42.735Z,9.38
2022-08-17T17:33:24.793Z,7.75
2022-08-17T17:36:01.888Z,7.97
2022-08-17T17:38:40.524Z,9.75
2022-08-17T17:41:25.350Z,8.63
2022-08-17T17:44:12.966Z,7.35
2022-08-17T17:47:06.028Z,8.10
2022-08-17T17:49:39.851Z,9.18
2022-08-17T17:52:31.711Z,9.20
2022-08-17T17:55:23.784Z,10.95
2022-08-17T17:58:14.794Z,10.60
2022-08-17T18:01:14.933Z,8.15
2022-08-17T18:04:01.557Z,9.40
2022-08-17T18:07:05.053Z,9.52
2022-08-17T18:10:01.510Z,6.53
2022-08-17T18:13:05.457Z,8.02
2022-08-17T18:15:41.192Z,9.43
2022-08-17T18:18:31.158Z,7.53
2022-08-17T18:21:06.055Z,8.95
2022-08-17T18:23:34.471Z,8.50
2022-08-17T18:26:02.730Z,7.25
2022-08-17T18:28:32.801Z,7.75
2022-08-17T18:31:17.608Z,7.63
2022-08-17T18:33:51.587Z,8.23
2022-08-17T18:36:31.346Z,34.97
2022-08-17T18:39:27.696Z,30.55
2022-08-17T18:41:58.585Z,36.50
2022-08-17T18:44:34.242Z,32.55
2022-08-17T18:47:22.157Z,22.73
2022-08-17T18:49:58.830Z,20.73
2022-08-17T18:52:31.078Z,14.88
2022-08-17T18:55:10.421Z,14.07
2022-08-17T18:57:43.031Z,12.32
2022-08-17T19:00:31.634Z,11.45
2022-08-17T19:03:16.024Z,11.80
2022-08-17T19:05:51.918Z,10.80
2022-08-17T19:08:28.785Z,8.40
2022-08-17T19:11:09.722Z,7.95
2022-08-17T19:13:47.596Z,7.03
2022-08-17T19:16:34.033Z,6.57
2022-08-17T19:19:25.016Z,8.82
2022-08-17T19:22:00.595Z,8.45
2022-08-17T19:24:32.729Z,7.82
2022-08-17T19:27:13.534Z,8.02
2022-08-17T19:30:08.393Z,7.85
2022-08-17T19:32:36.635Z,8.00
2022-08-17T19:35:07.312Z,8.63
2022-08-17T19:38:00.794Z,6.95
2022-08-17T19:40:51.799Z,8.45
2022-08-17T19:43:48.056Z,8.38
2022-08-17T19:46:59.585Z,7.70
2022-08-17T19:49:33.161Z,8.20
2022-08-17T19:52:30.117Z,6.93
2022-08-17T19:55:32.072Z,6.97
2022-08-17T19:58:06.911Z,8.30
2022-08-17T20:00:51.320Z,7.95
2022-08-17T20:03:32.005Z,6.65
2022-08-17T20:06:12.952Z,8.65
2022-08-17T20:08:56.910Z,7.85
2022-08-17T20:11:32.999Z,6.63
2022-08-17T20:14:21.264Z,7.50
2022-08-17T20:16:49.315Z,7.10
2022-08-17T20:19:40.032Z,7.45
2022-08-17T20:22:17.634Z,7.47
2022-08-17T20:24:51.338Z,7.28
2022-08-17T20:27:31.637Z,6.22
2022-08-17T20:30:29.973Z,6.78
2022-08-17T20:32:59.439Z,6.40
2022-08-17T20:35:33.434Z,7.93
2022-08-17T20:38:05.449Z,8.00
2022-08-17T20:41:01.162Z,7.90
2022-08-17T20:43:37.335Z,7.00
2022-08-17T20:46:10.782Z,8.45
2022-08-17T20:48:44.392Z,6.65
2022-08-17T20:51:54.555Z,7.03
2022-08-17T20:54:52.873Z,8.00
2022-08-17T20:57:33.144Z,6.28
2022-08-17T21:00:16.441Z,6.75
2022-08-17T21:03:12.122Z,5.93
2022-08-17T21:06:00.779Z,6.53
2022-08-17T21:08:46.300Z,6.45
2022-08-17T21:12:03.033Z,7.22
2022-08-17T21:14:32.078Z,7.90
2022-08-17T21:17:22.309Z,6.88
2022-08-17T21:20:17.116Z,7.22
2022-08-17T21:23:03.102Z,7.22
2022-08-17T21:26:08.488Z,7.18
2022-08-17T21:29:00.742Z,7.00
2022-08-17T21:34:26.580Z,7.30
2022-08-17T21:36:56.652Z,7.38
2022-08-17T21:39:39.301Z,7.68
2022-08-17T21:42:08.761Z,9.25
2022-08-17T21:44:49.348Z,7.50
2022-08-17T21:47:24.774Z,8.13
2022-08-17T21:49:54.018Z,7.32
2022-08-17T21:52:26.897Z,7.07
2022-08-17T21:55:02.421Z,8.15
2022-08-17T21:57:35.009Z,8.10
2022-08-17T22:00:15.825Z,6.47
2022-08-17T22:02:52.903Z,7.80
2022-08-17T22:05:31.568Z,7.05
2022-08-17T22:08:08.846Z,8.38
2022-08-17T22:10:49.097Z,7.82
2022-08-17T22:13:24.175Z,7.20
2022-08-17T22:16:28.440Z,7.40
2022-08-17T22:18:59.221Z,8.35
2022-08-17T22:21:27.492Z,7.45
2022-08-17T22:24:06.311Z,9.10
2022-08-17T22:27:13.835Z,6.88
2022-08-17T22:29:57.371Z,6.60
2022-08-17T22:32:39.475Z,7.47
2022-08-17T22:35:26.270Z,8.07
2022-08-17T22:37:54.337Z,7.85
2022-08-17T22:40:30.445Z,7.22
2022-08-17T22:43:00.596Z,7.70
2022-08-17T22:45:33.571Z,7.82
2022-08-17T22:48:02.162Z,8.30
2022-08-17T22:50:31.611Z,8.18
2022-08-17T22:53:20.940Z,9.82
2022-08-17T22:56:13.113Z,7.63
2022-08-17T22:59:18.360Z,6.47
2022-08-17T23:02:14.162Z,8.82
2022-08-17T23:04:49.669Z,8.15
2022-08-17T23:07:18.772Z,8.13
2022-08-17T23:09:46.684Z,6.55
2022-08-17T23:12:21.696Z,7.20
2022-08-17T23:14:51.504Z,8.77
2022-08-17T23:17:19.449Z,7.68
2022-08-17T23:19:47.291Z,8.30
2022-08-17T23:22:15.140Z,7.40
2022-08-17T23:24:46.408Z,8.00
2022-08-17T23:27:14.502Z,7.38
2022-08-17T23:29:42.828Z,7.90
2022-08-17T23:32:14.806Z,7.50
2022-08-17T23:34:44.200Z,6.33
2022-08-17T23:37:13.659Z,7.88
2022-08-17T23:39:44.672Z,7.40
2022-08-17T23:42:21.682Z,7.57
2022-08-17T23:44:50.007Z,6.20
2022-08-17T23:47:17.973Z,6.47
2022-08-17T23:49:45.774Z,6.68
2022-08-17T23:52:16.451Z,6.65
2022-08-17T23:54:47.175Z,7.70
2022-08-17T23:57:20.410Z,6.65
